sensor_id;sensor_type;location;lat;lon;timestamp;P1;durP1;ratioP1;P2;durP2;ratioP2
22417;SDS011;11376;50.932;4.442;2022-11-20T00:00:00;28.27;;;16.00;;
22417;SDS011;11376;50.932;4.442;2022-11-20T00:02:25;27.47;;;16.03;;
22417;SDS011;11376;50.932;4.442;2022-11-20T00:04:51;26.90;;;15.40;;
22417;SDS011;11376;50.932;4.442;2022-11-20T00:07:17;26.83;;;15.50;;
22417;SDS011;11376;50.932;4.442;2022-11-20T00:09:42;31.37;;;15.83;;
22417;SDS011;11376;50.932;4.442;2022-11-20T00:12:08;36.13;;;16.40;;
22417;SDS011;11376;50.932;4.442;2022-11-20T00:14:34;30.67;;;16.70;;
22417;SDS011;11376;50.932;4.442;2022-11-20T00:16:59;32.37;;;17.47;;
22417;SDS011;11376;50.932;4.442;2022-11-20T00:19:25;36.90;;;17.13;;
22417;SDS011;11376;50.932;4.442;2022-11-20T00:21:50;34.90;;;17.33;;
22417;SDS011;11376;50.932;4.442;2022-11-20T00:24:18;33.33;;;17.17;;
22417;SDS011;11376;50.932;4.442;2022-11-20T00:26:44;35.53;;;17.33;;
22417;SDS011;11376;50.932;4.442;2022-11-20T00:29:10;31.83;;;16.93;;
22417;SDS011;11376;50.932;4.442;2022-11-20T00:31:35;36.20;;;17.97;;
22417;SDS011;11376;50.932;4.442;2022-11-20T00:34:01;37.50;;;18.03;;
22417;SDS011;11376;50.932;4.442;2022-11-20T00:36:27;32.23;;;16.33;;
22417;SDS011;11376;50.932;4.442;2022-11-20T00:38:57;37.40;;;17.73;;
22417;SDS011;11376;50.932;4.442;2022-11-20T00:41:23;37.40;;;18.33;;
22417;SDS011;11376;50.932;4.442;2022-11-20T00:43:50;35.13;;;17.77;;
22417;SDS011;11376;50.932;4.442;2022-11-20T00:46:18;38.67;;;18.13;;
22417;SDS011;11376;50.932;4.442;2022-11-20T00:48:48;41.37;;;18.73;;
22417;SDS011;11376;50.932;4.442;2022-11-20T00:51:15;36.77;;;19.27;;
22417;SDS011;11376;50.932;4.442;2022-11-20T00:53:44;43.87;;;19.27;;
22417;SDS011;11376;50.932;4.442;2022-11-20T00:56:11;37.93;;;19.33;;
22417;SDS011;11376;50.932;4.442;2022-11-20T00:58:42;39.50;;;19.20;;
22417;SDS011;11376;50.932;4.442;2022-11-20T01:03:45;36.87;;;19.13;;
22417;SDS011;11376;50.932;4.442;2022-11-20T01:06:13;41.17;;;21.00;;
22417;SDS011;11376;50.932;4.442;2022-11-20T01:08:41;41.87;;;20.03;;
22417;SDS011;11376;50.932;4.442;2022-11-20T01:11:08;37.03;;;19.57;;
22417;SDS011;11376;50.932;4.442;2022-11-20T01:13:36;42.47;;;19.93;;
22417;SDS011;11376;50.932;4.442;2022-11-20T01:16:03;40.27;;;19.67;;
22417;SDS011;11376;50.932;4.442;2022-11-20T01:18:41;39.40;;;20.17;;
22417;SDS011;11376;50.932;4.442;2022-11-20T01:21:16;41.30;;;19.40;;
22417;SDS011;11376;50.932;4.442;2022-11-20T01:23:47;40.93;;;19.67;;
22417;SDS011;11376;50.932;4.442;2022-11-20T01:26:18;40.57;;;19.30;;
22417;SDS011;11376;50.932;4.442;2022-11-20T01:28:45;40.33;;;19.17;;
22417;SDS011;11376;50.932;4.442;2022-11-20T01:33:39;33.77;;;17.87;;
22417;SDS011;11376;50.932;4.442;2022-11-20T01:36:06;40.40;;;19.27;;
22417;SDS011;11376;50.932;4.442;2022-11-20T01:38:32;37.33;;;18.80;;
22417;SDS011;11376;50.932;4.442;2022-11-20T01:40:58;33.23;;;18.37;;
22417;SDS011;11376;50.932;4.442;2022-11-20T01:43:23;39.13;;;19.40;;
22417;SDS011;11376;50.932;4.442;2022-11-20T01:48:22;34.53;;;18.73;;
22417;SDS011;11376;50.932;4.442;2022-11-20T01:50:51;40.30;;;18.27;;
22417;SDS011;11376;50.932;4.442;2022-11-20T01:53:18;36.13;;;18.97;;
22417;SDS011;11376;50.932;4.442;2022-11-20T01:55:50;38.07;;;19.13;;
22417;SDS011;11376;50.932;4.442;2022-11-20T01:58:22;38.23;;;19.13;;
22417;SDS011;11376;50.932;4.442;2022-11-20T02:00:52;42.80;;;20.13;;
22417;SDS011;11376;50.932;4.442;2022-11-20T02:03:18;42.37;;;20.30;;
22417;SDS011;11376;50.932;4.442;2022-11-20T02:08:49;39.37;;;19.63;;
22417;SDS011;11376;50.932;4.442;2022-11-20T02:11:15;38.53;;;19.40;;
22417;SDS011;11376;50.932;4.442;2022-11-20T02:13:41;41.73;;;20.27;;
22417;SDS011;11376;50.932;4.442;2022-11-20T02:16:17;43.43;;;19.50;;
22417;SDS011;11376;50.932;4.442;2022-11-20T02:18:48;44.77;;;20.57;;
22417;SDS011;11376;50.932;4.442;2022-11-20T02:23:53;51.30;;;22.10;;
22417;SDS011;11376;50.932;4.442;2022-11-20T02:26:18;45.67;;;21.10;;
22417;SDS011;11376;50.932;4.442;2022-11-20T02:28:47;50.47;;;21.77;;
22417;SDS011;11376;50.932;4.442;2022-11-20T02:31:13;49.87;;;22.43;;
22417;SDS011;11376;50.932;4.442;2022-11-20T02:33:39;48.03;;;21.67;;
22417;SDS011;11376;50.932;4.442;2022-11-20T02:36:05;46.23;;;20.43;;
22417;SDS011;11376;50.932;4.442;2022-11-20T02:38:33;51.17;;;23.20;;
22417;SDS011;11376;50.932;4.442;2022-11-20T02:40:58;44.13;;;21.97;;
22417;SDS011;11376;50.932;4.442;2022-11-20T02:43:24;45.27;;;22.13;;
22417;SDS011;11376;50.932;4.442;2022-11-20T02:45:50;46.60;;;23.07;;
22417;SDS011;11376;50.932;4.442;2022-11-20T02:48:15;48.20;;;23.17;;
22417;SDS011;11376;50.932;4.442;2022-11-20T02:50:41;47.23;;;21.33;;
22417;SDS011;11376;50.932;4.442;2022-11-20T02:53:07;47.50;;;23.53;;
22417;SDS011;11376;50.932;4.442;2022-11-20T02:55:33;45.60;;;21.97;;
22417;SDS011;11376;50.932;4.442;2022-11-20T02:57:59;49.60;;;23.97;;
22417;SDS011;11376;50.932;4.442;2022-11-20T03:00:24;51.40;;;23.10;;
22417;SDS011;11376;50.932;4.442;2022-11-20T03:02:50;47.20;;;22.97;;
22417;SDS011;11376;50.932;4.442;2022-11-20T03:05:19;60.47;;;25.07;;
22417;SDS011;11376;50.932;4.442;2022-11-20T03:07:44;53.93;;;23.33;;
22417;SDS011;11376;50.932;4.442;2022-11-20T03:10:10;52.70;;;24.13;;
22417;SDS011;11376;50.932;4.442;2022-11-20T03:12:36;49.83;;;24.90;;
22417;SDS011;11376;50.932;4.442;2022-11-20T03:15:02;46.87;;;22.43;;
22417;SDS011;11376;50.932;4.442;2022-11-20T03:17:28;51.50;;;23.87;;
22417;SDS011;11376;50.932;4.442;2022-11-20T03:19:54;48.23;;;22.77;;
22417;SDS011;11376;50.932;4.442;2022-11-20T03:22:20;49.43;;;23.27;;
22417;SDS011;11376;50.932;4.442;2022-11-20T03:24:45;46.70;;;21.80;;
22417;SDS011;11376;50.932;4.442;2022-11-20T03:27:11;50.70;;;22.23;;
22417;SDS011;11376;50.932;4.442;2022-11-20T03:29:36;53.03;;;22.50;;
22417;SDS011;11376;50.932;4.442;2022-11-20T03:32:02;45.00;;;21.57;;
22417;SDS011;11376;50.932;4.442;2022-11-20T03:34:28;47.73;;;22.13;;
22417;SDS011;11376;50.932;4.442;2022-11-20T03:36:53;45.33;;;20.57;;
22417;SDS011;11376;50.932;4.442;2022-11-20T03:39:19;44.83;;;22.07;;
22417;SDS011;11376;50.932;4.442;2022-11-20T03:41:45;45.03;;;20.43;;
22417;SDS011;11376;50.932;4.442;2022-11-20T03:44:11;45.60;;;21.53;;
22417;SDS011;11376;50.932;4.442;2022-11-20T03:46:37;45.80;;;21.20;;
22417;SDS011;11376;50.932;4.442;2022-11-20T03:49:03;42.87;;;19.13;;
22417;SDS011;11376;50.932;4.442;2022-11-20T03:51:30;29.83;;;13.00;;
22417;SDS011;11376;50.932;4.442;2022-11-20T03:53:58;39.60;;;18.87;;
22417;SDS011;11376;50.932;4.442;2022-11-20T03:56:31;43.30;;;19.50;;
22417;SDS011;11376;50.932;4.442;2022-11-20T03:58:58;37.80;;;18.57;;
22417;SDS011;11376;50.932;4.442;2022-11-20T04:01:26;36.13;;;17.07;;
22417;SDS011;11376;50.932;4.442;2022-11-20T04:03:53;40.10;;;18.17;;
22417;SDS011;11376;50.932;4.442;2022-11-20T04:06:22;37.43;;;17.37;;
22417;SDS011;11376;50.932;4.442;2022-11-20T04:08:53;40.23;;;18.97;;
22417;SDS011;11376;50.932;4.442;2022-11-20T04:11:24;33.57;;;16.57;;
22417;SDS011;11376;50.932;4.442;2022-11-20T04:13:52;38.53;;;18.20;;
22417;SDS011;11376;50.932;4.442;2022-11-20T04:16:29;38.20;;;17.27;;
22417;SDS011;11376;50.932;4.442;2022-11-20T04:18:57;38.63;;;17.27;;
22417;SDS011;11376;50.932;4.442;2022-11-20T04:21:25;37.37;;;17.63;;
22417;SDS011;11376;50.932;4.442;2022-11-20T04:23:51;38.43;;;17.57;;
22417;SDS011;11376;50.932;4.442;2022-11-20T04:26:18;37.13;;;17.90;;
22417;SDS011;11376;50.932;4.442;2022-11-20T04:28:45;38.80;;;17.53;;
22417;SDS011;11376;50.932;4.442;2022-11-20T04:31:12;40.00;;;18.43;;
22417;SDS011;11376;50.932;4.442;2022-11-20T04:33:40;40.27;;;18.67;;
22417;SDS011;11376;50.932;4.442;2022-11-20T04:36:07;39.03;;;18.43;;
22417;SDS011;11376;50.932;4.442;2022-11-20T04:38:36;39.00;;;18.60;;
22417;SDS011;11376;50.932;4.442;2022-11-20T04:41:04;40.53;;;19.10;;
22417;SDS011;11376;50.932;4.442;2022-11-20T04:43:31;44.27;;;19.20;;
22417;SDS011;11376;50.932;4.442;2022-11-20T04:45:57;43.70;;;19.77;;
22417;SDS011;11376;50.932;4.442;2022-11-20T04:48:25;41.40;;;19.03;;
22417;SDS011;11376;50.932;4.442;2022-11-20T04:50:51;42.37;;;18.73;;
22417;SDS011;11376;50.932;4.442;2022-11-20T04:53:17;43.67;;;19.37;;
22417;SDS011;11376;50.932;4.442;2022-11-20T04:55:43;39.67;;;18.87;;
22417;SDS011;11376;50.932;4.442;2022-11-20T04:58:09;42.90;;;19.20;;
22417;SDS011;11376;50.932;4.442;2022-11-20T05:00:35;39.63;;;18.67;;
22417;SDS011;11376;50.932;4.442;2022-11-20T05:03:01;45.30;;;19.00;;
22417;SDS011;11376;50.932;4.442;2022-11-20T05:05:27;42.27;;;18.93;;
22417;SDS011;11376;50.932;4.442;2022-11-20T05:07:52;39.27;;;19.27;;
22417;SDS011;11376;50.932;4.442;2022-11-20T05:10:20;36.97;;;18.53;;
22417;SDS011;11376;50.932;4.442;2022-11-20T05:12:46;43.00;;;19.70;;
22417;SDS011;11376;50.932;4.442;2022-11-20T05:15:11;44.63;;;19.57;;
22417;SDS011;11376;50.932;4.442;2022-11-20T05:17:47;41.00;;;18.43;;
22417;SDS011;11376;50.932;4.442;2022-11-20T05:20:16;36.47;;;18.03;;
22417;SDS011;11376;50.932;4.442;2022-11-20T05:22:45;41.60;;;19.17;;
22417;SDS011;11376;50.932;4.442;2022-11-20T05:25:11;41.67;;;19.03;;
22417;SDS011;11376;50.932;4.442;2022-11-20T05:27:36;38.87;;;18.47;;
22417;SDS011;11376;50.932;4.442;2022-11-20T05:30:06;35.77;;;17.93;;
22417;SDS011;11376;50.932;4.442;2022-11-20T05:32:32;39.73;;;18.70;;
22417;SDS011;11376;50.932;4.442;2022-11-20T05:34:58;39.70;;;17.93;;
22417;SDS011;11376;50.932;4.442;2022-11-20T05:37:24;39.67;;;18.63;;
22417;SDS011;11376;50.932;4.442;2022-11-20T05:39:50;44.23;;;18.97;;
22417;SDS011;11376;50.932;4.442;2022-11-20T05:42:15;43.60;;;19.63;;
22417;SDS011;11376;50.932;4.442;2022-11-20T05:44:57;40.80;;;19.17;;
22417;SDS011;11376;50.932;4.442;2022-11-20T05:47:23;41.23;;;20.77;;
22417;SDS011;11376;50.932;4.442;2022-11-20T05:49:49;42.50;;;19.80;;
22417;SDS011;11376;50.932;4.442;2022-11-20T05:52:14;42.20;;;19.13;;
22417;SDS011;11376;50.932;4.442;2022-11-20T05:54:40;38.53;;;19.17;;
22417;SDS011;11376;50.932;4.442;2022-11-20T05:57:06;40.63;;;18.60;;
22417;SDS011;11376;50.932;4.442;2022-11-20T05:59:32;39.20;;;18.67;;
22417;SDS011;11376;50.932;4.442;2022-11-20T06:01:57;40.90;;;19.13;;
22417;SDS011;11376;50.932;4.442;2022-11-20T06:04:23;42.23;;;19.13;;
22417;SDS011;11376;50.932;4.442;2022-11-20T06:06:49;40.17;;;19.10;;
22417;SDS011;11376;50.932;4.442;2022-11-20T06:09:14;42.27;;;19.43;;
22417;SDS011;11376;50.932;4.442;2022-11-20T06:11:40;43.57;;;19.13;;
22417;SDS011;11376;50.932;4.442;2022-11-20T06:14:06;45.37;;;19.87;;
22417;SDS011;11376;50.932;4.442;2022-11-20T06:16:31;46.17;;;19.93;;
22417;SDS011;11376;50.932;4.442;2022-11-20T06:18:57;40.67;;;18.97;;
22417;SDS011;11376;50.932;4.442;2022-11-20T06:21:23;45.13;;;19.70;;
22417;SDS011;11376;50.932;4.442;2022-11-20T06:23:49;42.97;;;20.40;;
22417;SDS011;11376;50.932;4.442;2022-11-20T06:26:24;48.20;;;19.63;;
22417;SDS011;11376;50.932;4.442;2022-11-20T06:28:53;45.30;;;19.43;;
22417;SDS011;11376;50.932;4.442;2022-11-20T06:31:20;47.20;;;19.83;;
22417;SDS011;11376;50.932;4.442;2022-11-20T06:33:48;47.60;;;20.57;;
22417;SDS011;11376;50.932;4.442;2022-11-20T06:36:15;49.67;;;20.60;;
22417;SDS011;11376;50.932;4.442;2022-11-20T06:38:42;47.40;;;21.13;;
22417;SDS011;11376;50.932;4.442;2022-11-20T06:41:12;52.10;;;20.97;;
22417;SDS011;11376;50.932;4.442;2022-11-20T06:43:39;46.93;;;20.90;;
22417;SDS011;11376;50.932;4.442;2022-11-20T06:46:05;51.10;;;21.53;;
22417;SDS011;11376;50.932;4.442;2022-11-20T06:48:31;44.47;;;20.10;;
22417;SDS011;11376;50.932;4.442;2022-11-20T06:50:57;50.67;;;20.63;;
22417;SDS011;11376;50.932;4.442;2022-11-20T06:53:24;56.17;;;22.50;;
22417;SDS011;11376;50.932;4.442;2022-11-20T06:55:49;51.57;;;21.13;;
22417;SDS011;11376;50.932;4.442;2022-11-20T06:58:16;48.57;;;20.73;;
22417;SDS011;11376;50.932;4.442;2022-11-20T07:00:43;52.67;;;21.90;;
22417;SDS011;11376;50.932;4.442;2022-11-20T07:03:10;56.70;;;21.70;;
22417;SDS011;11376;50.932;4.442;2022-11-20T07:05:36;55.73;;;22.10;;
22417;SDS011;11376;50.932;4.442;2022-11-20T07:08:03;50.53;;;21.03;;
22417;SDS011;11376;50.932;4.442;2022-11-20T07:10:30;52.73;;;22.13;;
22417;SDS011;11376;50.932;4.442;2022-11-20T07:12:56;57.23;;;22.07;;
22417;SDS011;11376;50.932;4.442;2022-11-20T07:15:24;56.07;;;21.27;;
22417;SDS011;11376;50.932;4.442;2022-11-20T07:17:51;58.57;;;22.90;;
22417;SDS011;11376;50.932;4.442;2022-11-20T07:20:17;61.33;;;22.63;;
22417;SDS011;11376;50.932;4.442;2022-11-20T07:22:42;58.60;;;21.70;;
22417;SDS011;11376;50.932;4.442;2022-11-20T07:25:09;60.30;;;23.10;;
22417;SDS011;11376;50.932;4.442;2022-11-20T07:27:34;57.20;;;22.97;;
22417;SDS011;11376;50.932;4.442;2022-11-20T07:30:01;61.63;;;23.43;;
22417;SDS011;11376;50.932;4.442;2022-11-20T07:32:27;60.90;;;23.43;;
22417;SDS011;11376;50.932;4.442;2022-11-20T07:34:53;63.77;;;23.93;;
22417;SDS011;11376;50.932;4.442;2022-11-20T07:37:18;61.27;;;24.20;;
22417;SDS011;11376;50.932;4.442;2022-11-20T07:39:44;61.23;;;23.37;;
22417;SDS011;11376;50.932;4.442;2022-11-20T07:42:10;67.33;;;24.03;;
22417;SDS011;11376;50.932;4.442;2022-11-20T07:44:37;62.30;;;23.70;;
22417;SDS011;11376;50.932;4.442;2022-11-20T07:47:03;59.07;;;23.30;;
22417;SDS011;11376;50.932;4.442;2022-11-20T07:49:29;62.83;;;23.67;;
22417;SDS011;11376;50.932;4.442;2022-11-20T07:51:54;68.57;;;24.53;;
22417;SDS011;11376;50.932;4.442;2022-11-20T07:54:20;62.73;;;24.30;;
22417;SDS011;11376;50.932;4.442;2022-11-20T07:56:47;63.90;;;24.50;;
22417;SDS011;11376;50.932;4.442;2022-11-20T07:59:13;69.47;;;25.17;;
22417;SDS011;11376;50.932;4.442;2022-11-20T08:01:39;62.67;;;24.23;;
22417;SDS011;11376;50.932;4.442;2022-11-20T08:04:05;63.60;;;23.57;;
22417;SDS011;11376;50.932;4.442;2022-11-20T08:06:31;66.80;;;25.03;;
22417;SDS011;11376;50.932;4.442;2022-11-20T08:08:57;62.67;;;24.23;;
22417;SDS011;11376;50.932;4.442;2022-11-20T08:11:22;60.27;;;24.50;;
22417;SDS011;11376;50.932;4.442;2022-11-20T08:14:07;67.33;;;24.40;;
22417;SDS011;11376;50.932;4.442;2022-11-20T08:16:39;62.73;;;24.77;;
22417;SDS011;11376;50.932;4.442;2022-11-20T08:19:09;61.87;;;23.80;;
22417;SDS011;11376;50.932;4.442;2022-11-20T08:21:35;63.77;;;24.60;;
22417;SDS011;11376;50.932;4.442;2022-11-20T08:24:00;64.13;;;24.20;;
22417;SDS011;11376;50.932;4.442;2022-11-20T08:26:26;63.23;;;24.20;;
22417;SDS011;11376;50.932;4.442;2022-11-20T08:28:55;65.93;;;23.93;;
22417;SDS011;11376;50.932;4.442;2022-11-20T08:31:23;60.57;;;23.57;;
22417;SDS011;11376;50.932;4.442;2022-11-20T08:33:50;57.50;;;23.17;;
22417;SDS011;11376;50.932;4.442;2022-11-20T08:36:16;63.03;;;23.13;;
22417;SDS011;11376;50.932;4.442;2022-11-20T08:38:46;62.53;;;24.60;;
22417;SDS011;11376;50.932;4.442;2022-11-20T08:41:16;57.13;;;22.53;;
22417;SDS011;11376;50.932;4.442;2022-11-20T08:43:56;61.90;;;21.90;;
22417;SDS011;11376;50.932;4.442;2022-11-20T08:46:24;61.33;;;23.03;;
22417;SDS011;11376;50.932;4.442;2022-11-20T08:48:51;58.67;;;23.07;;
22417;SDS011;11376;50.932;4.442;2022-11-20T08:51:17;58.83;;;23.30;;
22417;SDS011;11376;50.932;4.442;2022-11-20T08:53:44;69.17;;;24.30;;
22417;SDS011;11376;50.932;4.442;2022-11-20T08:56:10;62.70;;;23.83;;
22417;SDS011;11376;50.932;4.442;2022-11-20T08:58:36;57.43;;;21.23;;
22417;SDS011;11376;50.932;4.442;2022-11-20T09:01:02;60.27;;;23.03;;
22417;SDS011;11376;50.932;4.442;2022-11-20T09:03:28;57.97;;;21.67;;
22417;SDS011;11376;50.932;4.442;2022-11-20T09:06:00;59.87;;;21.13;;
22417;SDS011;11376;50.932;4.442;2022-11-20T09:08:28;60.07;;;20.47;;
22417;SDS011;11376;50.932;4.442;2022-11-20T09:10:54;56.60;;;20.57;;
22417;SDS011;11376;50.932;4.442;2022-11-20T09:13:21;60.63;;;22.93;;
22417;SDS011;11376;50.932;4.442;2022-11-20T09:15:52;61.37;;;21.90;;
22417;SDS011;11376;50.932;4.442;2022-11-20T09:18:19;63.10;;;22.33;;
22417;SDS011;11376;50.932;4.442;2022-11-20T09:20:45;60.63;;;22.40;;
22417;SDS011;11376;50.932;4.442;2022-11-20T09:23:10;55.40;;;21.93;;
22417;SDS011;11376;50.932;4.442;2022-11-20T09:25:36;59.77;;;21.97;;
22417;SDS011;11376;50.932;4.442;2022-11-20T09:28:01;59.90;;;22.30;;
22417;SDS011;11376;50.932;4.442;2022-11-20T09:30:27;56.20;;;22.50;;
22417;SDS011;11376;50.932;4.442;2022-11-20T09:32:52;58.47;;;22.47;;
22417;SDS011;11376;50.932;4.442;2022-11-20T09:35:18;61.70;;;21.73;;
22417;SDS011;11376;50.932;4.442;2022-11-20T09:37:44;56.67;;;21.60;;
22417;SDS011;11376;50.932;4.442;2022-11-20T09:40:28;55.20;;;21.37;;
22417;SDS011;11376;50.932;4.442;2022-11-20T09:46:02;52.17;;;20.70;;
22417;SDS011;11376;50.932;4.442;2022-11-20T09:54:27;54.53;;;20.73;;
22417;SDS011;11376;50.932;4.442;2022-11-20T09:57:00;49.87;;;20.50;;
22417;SDS011;11376;50.932;4.442;2022-11-20T09:59:44;51.20;;;19.73;;
22417;SDS011;11376;50.932;4.442;2022-11-20T10:04:53;44.13;;;18.93;;
22417;SDS011;11376;50.932;4.442;2022-11-20T10:07:22;47.40;;;19.53;;
22417;SDS011;11376;50.932;4.442;2022-11-20T10:09:54;45.30;;;19.17;;
22417;SDS011;11376;50.932;4.442;2022-11-20T10:12:31;42.60;;;16.97;;
22417;SDS011;11376;50.932;4.442;2022-11-20T10:26:17;34.93;;;16.60;;
22417;SDS011;11376;50.932;4.442;2022-11-20T10:34:06;34.83;;;15.87;;
22417;SDS011;11376;50.932;4.442;2022-11-20T10:36:56;36.93;;;15.90;;
22417;SDS011;11376;50.932;4.442;2022-11-20T10:39:31;32.23;;;14.93;;
22417;SDS011;11376;50.932;4.442;2022-11-20T10:42:15;33.43;;;13.63;;
22417;SDS011;11376;50.932;4.442;2022-11-20T10:44:48;29.93;;;13.87;;
22417;SDS011;11376;50.932;4.442;2022-11-20T10:47:25;30.87;;;14.43;;
22417;SDS011;11376;50.932;4.442;2022-11-20T10:49:55;25.63;;;12.17;;
22417;SDS011;11376;50.932;4.442;2022-11-20T10:54:51;24.43;;;11.07;;
22417;SDS011;11376;50.932;4.442;2022-11-20T11:00:16;18.93;;;9.57;;
22417;SDS011;11376;50.932;4.442;2022-11-20T11:08:14;11.47;;;5.67;;
22417;SDS011;11376;50.932;4.442;2022-11-20T11:10:47;11.60;;;4.80;;
22417;SDS011;11376;50.932;4.442;2022-11-20T11:13:19;11.97;;;3.87;;
22417;SDS011;11376;50.932;4.442;2022-11-20T11:15:45;11.57;;;4.53;;
22417;SDS011;11376;50.932;4.442;2022-11-20T11:18:11;10.07;;;3.30;;
22417;SDS011;11376;50.932;4.442;2022-11-20T11:20:51;9.07;;;2.63;;
22417;SDS011;11376;50.932;4.442;2022-11-20T11:23:28;8.93;;;2.90;;
22417;SDS011;11376;50.932;4.442;2022-11-20T11:26:00;9.60;;;3.47;;
22417;SDS011;11376;50.932;4.442;2022-11-20T11:28:27;10.53;;;3.50;;
22417;SDS011;11376;50.932;4.442;2022-11-20T11:30:53;5.60;;;2.17;;
22417;SDS011;11376;50.932;4.442;2022-11-20T11:33:21;7.93;;;2.00;;
22417;SDS011;11376;50.932;4.442;2022-11-20T11:35:56;6.40;;;2.27;;
22417;SDS011;11376;50.932;4.442;2022-11-20T11:38:32;9.33;;;2.83;;
22417;SDS011;11376;50.932;4.442;2022-11-20T11:41:01;8.63;;;2.93;;
22417;SDS011;11376;50.932;4.442;2022-11-20T11:43:32;8.83;;;3.00;;
22417;SDS011;11376;50.932;4.442;2022-11-20T11:46:32;7.03;;;1.67;;
22417;SDS011;11376;50.932;4.442;2022-11-20T11:51:38;10.07;;;2.40;;
22417;SDS011;11376;50.932;4.442;2022-11-20T11:54:25;6.13;;;2.10;;
22417;SDS011;11376;50.932;4.442;2022-11-20T11:56:53;5.80;;;2.73;;
22417;SDS011;11376;50.932;4.442;2022-11-20T11:59:27;5.77;;;1.90;;
22417;SDS011;11376;50.932;4.442;2022-11-20T12:02:04;11.23;;;2.57;;
22417;SDS011;11376;50.932;4.442;2022-11-20T12:04:53;7.37;;;2.43;;
22417;SDS011;11376;50.932;4.442;2022-11-20T12:09:55;5.43;;;1.93;;
22417;SDS011;11376;50.932;4.442;2022-11-20T12:12:30;9.00;;;2.27;;
22417;SDS011;11376;50.932;4.442;2022-11-20T12:15:01;8.37;;;2.20;;
22417;SDS011;11376;50.932;4.442;2022-11-20T12:17:29;9.53;;;2.50;;
22417;SDS011;11376;50.932;4.442;2022-11-20T12:19:54;12.00;;;3.30;;
22417;SDS011;11376;50.932;4.442;2022-11-20T12:25:11;8.33;;;2.40;;
22417;SDS011;11376;50.932;4.442;2022-11-20T12:30:26;5.60;;;1.30;;
22417;SDS011;11376;50.932;4.442;2022-11-20T12:43:20;9.83;;;2.43;;
22417;SDS011;11376;50.932;4.442;2022-11-20T12:46:10;12.73;;;2.53;;
22417;SDS011;11376;50.932;4.442;2022-11-20T12:48:51;9.20;;;2.23;;
22417;SDS011;11376;50.932;4.442;2022-11-20T12:54:10;10.43;;;2.70;;
22417;SDS011;11376;50.932;4.442;2022-11-20T13:00:18;11.13;;;3.87;;
22417;SDS011;11376;50.932;4.442;2022-11-20T13:08:36;10.20;;;2.70;;
22417;SDS011;11376;50.932;4.442;2022-11-20T13:19:55;9.87;;;3.80;;
22417;SDS011;11376;50.932;4.442;2022-11-20T13:22:27;12.53;;;4.70;;
22417;SDS011;11376;50.932;4.442;2022-11-20T13:25:27;9.63;;;3.20;;
22417;SDS011;11376;50.932;4.442;2022-11-20T13:27:58;12.43;;;2.60;;
22417;SDS011;11376;50.932;4.442;2022-11-20T13:30:26;7.87;;;2.43;;
22417;SDS011;11376;50.932;4.442;2022-11-20T13:35:37;9.80;;;2.80;;
22417;SDS011;11376;50.932;4.442;2022-11-20T13:38:10;6.87;;;2.43;;
22417;SDS011;11376;50.932;4.442;2022-11-20T13:40:51;9.33;;;2.83;;
22417;SDS011;11376;50.932;4.442;2022-11-20T13:43:28;7.67;;;2.60;;
22417;SDS011;11376;50.932;4.442;2022-11-20T13:46:09;4.80;;;2.30;;
22417;SDS011;11376;50.932;4.442;2022-11-20T13:48:39;7.53;;;2.07;;
22417;SDS011;11376;50.932;4.442;2022-11-20T13:54:07;6.60;;;1.60;;
22417;SDS011;11376;50.932;4.442;2022-11-20T14:01:59;6.90;;;2.20;;
22417;SDS011;11376;50.932;4.442;2022-11-20T14:04:33;5.53;;;2.07;;
22417;SDS011;11376;50.932;4.442;2022-11-20T14:07:05;6.03;;;2.73;;
22417;SDS011;11376;50.932;4.442;2022-11-20T14:09:32;4.30;;;1.63;;
22417;SDS011;11376;50.932;4.442;2022-11-20T14:11:59;5.63;;;2.27;;
22417;SDS011;11376;50.932;4.442;2022-11-20T14:14:26;3.03;;;1.57;;
22417;SDS011;11376;50.932;4.442;2022-11-20T14:19:32;3.37;;;1.50;;
22417;SDS011;11376;50.932;4.442;2022-11-20T14:24:38;4.80;;;1.50;;
22417;SDS011;11376;50.932;4.442;2022-11-20T14:27:04;2.73;;;1.07;;
22417;SDS011;11376;50.932;4.442;2022-11-20T14:29:36;4.87;;;1.50;;
22417;SDS011;11376;50.932;4.442;2022-11-20T14:32:03;2.87;;;1.07;;
22417;SDS011;11376;50.932;4.442;2022-11-20T14:34:30;4.57;;;1.63;;
22417;SDS011;11376;50.932;4.442;2022-11-20T14:37:04;3.80;;;1.20;;
22417;SDS011;11376;50.932;4.442;2022-11-20T14:39:36;4.03;;;1.50;;
22417;SDS011;11376;50.932;4.442;2022-11-20T14:42:21;3.20;;;1.43;;
22417;SDS011;11376;50.932;4.442;2022-11-20T14:44:49;6.37;;;1.93;;
22417;SDS011;11376;50.932;4.442;2022-11-20T14:47:20;3.97;;;1.77;;
22417;SDS011;11376;50.932;4.442;2022-11-20T14:49:47;4.23;;;1.70;;
22417;SDS011;11376;50.932;4.442;2022-11-20T14:52:17;7.03;;;2.23;;
22417;SDS011;11376;50.932;4.442;2022-11-20T14:54:48;5.03;;;2.10;;
22417;SDS011;11376;50.932;4.442;2022-11-20T14:59:50;4.30;;;2.00;;
22417;SDS011;11376;50.932;4.442;2022-11-20T15:02:15;4.17;;;1.73;;
22417;SDS011;11376;50.932;4.442;2022-11-20T15:04:48;5.83;;;2.27;;
22417;SDS011;11376;50.932;4.442;2022-11-20T15:07:29;4.30;;;2.50;;
22417;SDS011;11376;50.932;4.442;2022-11-20T15:12:33;9.03;;;2.70;;
22417;SDS011;11376;50.932;4.442;2022-11-20T15:15:03;4.87;;;2.27;;
22417;SDS011;11376;50.932;4.442;2022-11-20T15:17:30;5.30;;;2.63;;
22417;SDS011;11376;50.932;4.442;2022-11-20T15:19:57;4.40;;;2.47;;
22417;SDS011;11376;50.932;4.442;2022-11-20T15:22:24;6.90;;;3.30;;
22417;SDS011;11376;50.932;4.442;2022-11-20T15:24:50;4.40;;;2.60;;
22417;SDS011;11376;50.932;4.442;2022-11-20T15:27:16;6.50;;;2.13;;
22417;SDS011;11376;50.932;4.442;2022-11-20T15:29:41;9.10;;;3.13;;
22417;SDS011;11376;50.932;4.442;2022-11-20T15:32:07;9.00;;;3.03;;
22417;SDS011;11376;50.932;4.442;2022-11-20T15:34:33;5.37;;;2.40;;
22417;SDS011;11376;50.932;4.442;2022-11-20T15:36:59;9.07;;;3.43;;
22417;SDS011;11376;50.932;4.442;2022-11-20T15:39:25;8.27;;;3.50;;
22417;SDS011;11376;50.932;4.442;2022-11-20T15:41:50;5.07;;;2.53;;
22417;SDS011;11376;50.932;4.442;2022-11-20T15:44:16;5.90;;;2.80;;
22417;SDS011;11376;50.932;4.442;2022-11-20T15:46:41;7.13;;;2.57;;
22417;SDS011;11376;50.932;4.442;2022-11-20T15:49:13;7.87;;;2.50;;
22417;SDS011;11376;50.932;4.442;2022-11-20T15:51:44;9.67;;;3.40;;
22417;SDS011;11376;50.932;4.442;2022-11-20T15:54:12;8.47;;;3.43;;
22417;SDS011;11376;50.932;4.442;2022-11-20T15:56:39;8.70;;;2.90;;
22417;SDS011;11376;50.932;4.442;2022-11-20T15:59:05;6.73;;;2.57;;
22417;SDS011;11376;50.932;4.442;2022-11-20T16:01:30;13.37;;;3.73;;
22417;SDS011;11376;50.932;4.442;2022-11-20T16:03:56;6.30;;;3.27;;
22417;SDS011;11376;50.932;4.442;2022-11-20T16:06:22;11.30;;;2.93;;
22417;SDS011;11376;50.932;4.442;2022-11-20T16:08:47;10.87;;;2.90;;
22417;SDS011;11376;50.932;4.442;2022-11-20T16:11:13;10.80;;;3.50;;
22417;SDS011;11376;50.932;4.442;2022-11-20T16:13:41;15.53;;;3.40;;
22417;SDS011;11376;50.932;4.442;2022-11-20T16:16:27;10.67;;;3.60;;
22417;SDS011;11376;50.932;4.442;2022-11-20T16:18:55;15.30;;;3.07;;
22417;SDS011;11376;50.932;4.442;2022-11-20T16:21:21;12.23;;;2.73;;
22417;SDS011;11376;50.932;4.442;2022-11-20T16:23:53;10.00;;;2.30;;
22417;SDS011;11376;50.932;4.442;2022-11-20T16:26:18;19.03;;;3.27;;
22417;SDS011;11376;50.932;4.442;2022-11-20T16:28:45;12.80;;;2.97;;
22417;SDS011;11376;50.932;4.442;2022-11-20T16:31:15;12.90;;;2.43;;